sensor_id;sensor_type;location;lat;lon;timestamp;pressure;altitude;pressure_sealevel;temperature;humidity
41712;BME280;27399;51.516;13.670;2023-12-22T00:02:07;97825.72;;;6.89;80.00
41712;BME280;27399;51.516;13.670;2023-12-22T00:04:32;97820.59;;;6.84;81.01
41712;BME280;27399;51.516;13.670;2023-12-22T00:06:57;97814.97;;;6.93;79.50
41712;BME280;27399;51.516;13.670;2023-12-22T00:09:23;97809.59;;;6.70;81.81
41712;BME280;27399;51.516;13.670;2023-12-22T00:11:48;97809.34;;;6.77;80.58
41712;BME280;27399;51.516;13.670;2023-12-22T00:14:14;97808.84;;;6.91;79.95
41712;BME280;27399;51.516;13.670;2023-12-22T00:16:39;97802.06;;;6.82;79.21
41712;BME280;27399;51.516;13.670;2023-12-22T00:19:04;97795.03;;;6.56;80.04
41712;BME280;27399;51.516;13.670;2023-12-22T00:21:30;97809.59;;;6.70;79.77
41712;BME280;27399;51.516;13.670;2023-12-22T00:23:56;97809.56;;;6.71;79.66
41712;BME280;27399;51.516;13.670;2023-12-22T00:26:21;97804.19;;;6.73;78.79
41712;BME280;27399;51.516;13.670;2023-12-22T00:28:47;97807.09;;;6.90;79.16
41712;BME280;27399;51.516;13.670;2023-12-22T00:31:12;97818.63;;;6.89;78.77
41712;BME280;27399;51.516;13.670;2023-12-22T00:33:38;97820.69;;;6.81;80.75
41712;BME280;27399;51.516;13.670;2023-12-22T00:36:03;97830.34;;;6.82;81.30
41712;BME280;27399;51.516;13.670;2023-12-22T00:38:29;97818.13;;;6.78;80.69
41712;BME280;27399;51.516;13.670;2023-12-22T00:40:54;97817.75;;;6.63;80.32
41712;BME280;27399;51.516;13.670;2023-12-22T00:43:19;97816.03;;;6.62;81.98
41712;BME280;27399;51.516;13.670;2023-12-22T00:45:45;97828.31;;;6.90;81.45
41712;BME280;27399;51.516;13.670;2023-12-22T00:48:10;97832.94;;;6.83;81.01
41712;BME280;27399;51.516;13.670;2023-12-22T00:50:35;97825.16;;;6.79;80.48
41712;BME280;27399;51.516;13.670;2023-12-22T00:53:01;97830.94;;;6.65;79.04
41712;BME280;27399;51.516;13.670;2023-12-22T00:55:26;97835.66;;;6.82;79.31
41712;BME280;27399;51.516;13.670;2023-12-22T00:57:51;97835.88;;;6.49;80.52
41712;BME280;27399;51.516;13.670;2023-12-22T01:00:17;97842.00;;;6.51;81.31
41712;BME280;27399;51.516;13.670;2023-12-22T01:02:42;97844.75;;;6.48;81.19
41712;BME280;27399;51.516;13.670;2023-12-22T01:05:09;97870.13;;;6.55;82.24
41712;BME280;27399;51.516;13.670;2023-12-22T01:07:35;97862.50;;;6.44;80.34
41712;BME280;27399;51.516;13.670;2023-12-22T01:10:00;97868.13;;;6.35;80.01
41712;BME280;27399;51.516;13.670;2023-12-22T01:12:27;97894.56;;;6.35;82.04
41712;BME280;27399;51.516;13.670;2023-12-22T01:14:53;97899.41;;;6.50;80.61
41712;BME280;27399;51.516;13.670;2023-12-22T01:17:18;97910.53;;;6.33;79.28
41712;BME280;27399;51.516;13.670;2023-12-22T01:19:44;97927.84;;;6.44;80.55
41712;BME280;27399;51.516;13.670;2023-12-22T01:22:10;97915.84;;;6.60;80.62
41712;BME280;27399;51.516;13.670;2023-12-22T01:24:35;97914.47;;;6.48;79.72
41712;BME280;27399;51.516;13.670;2023-12-22T01:27:04;97916.34;;;6.45;79.97
41712;BME280;27399;51.516;13.670;2023-12-22T01:29:30;97927.56;;;6.53;79.45
41712;BME280;27399;51.516;13.670;2023-12-22T01:31:55;97924.31;;;6.43;77.91
41712;BME280;27399;51.516;13.670;2023-12-22T01:34:20;97914.41;;;6.50;79.32
41712;BME280;27399;51.516;13.670;2023-12-22T01:36:46;97928.63;;;6.46;78.36
41712;BME280;27399;51.516;13.670;2023-12-22T01:39:11;97926.13;;;6.70;77.95
41712;BME280;27399;51.516;13.670;2023-12-22T01:41:36;97931.34;;;6.73;79.50
41712;BME280;27399;51.516;13.670;2023-12-22T01:44:02;97936.91;;;6.90;78.45
41712;BME280;27399;51.516;13.670;2023-12-22T01:46:27;97938.63;;;6.93;78.56
41712;BME280;27399;51.516;13.670;2023-12-22T01:48:53;97917.56;;;6.61;79.75
41712;BME280;27399;51.516;13.670;2023-12-22T01:51:18;97932.44;;;6.92;78.47
41712;BME280;27399;51.516;13.670;2023-12-22T01:53:44;97936.16;;;6.87;79.46
41712;BME280;27399;51.516;13.670;2023-12-22T01:56:09;97949.34;;;6.88;79.89
41712;BME280;27399;51.516;13.670;2023-12-22T01:58:35;97938.16;;;6.80;79.75
41712;BME280;27399;51.516;13.670;2023-12-22T02:01:01;97941.16;;;6.69;79.23
41712;BME280;27399;51.516;13.670;2023-12-22T02:03:27;97927.84;;;6.71;79.45
41712;BME280;27399;51.516;13.670;2023-12-22T02:05:52;97924.50;;;6.65;79.05
41712;BME280;27399;51.516;13.670;2023-12-22T02:08:18;97935.28;;;6.59;79.42
41712;BME280;27399;51.516;13.670;2023-12-22T02:10:44;97935.28;;;6.59;79.77
41712;BME280;27399;51.516;13.670;2023-12-22T02:13:10;97949.72;;;6.49;79.86
41712;BME280;27399;51.516;13.670;2023-12-22T02:15:36;97938.44;;;6.44;80.66
41712;BME280;27399;51.516;13.670;2023-12-22T02:18:07;97930.81;;;6.33;80.10
41712;BME280;27399;51.516;13.670;2023-12-22T02:20:32;97937.31;;;6.23;80.10
41712;BME280;27399;51.516;13.670;2023-12-22T02:22:58;97913.72;;;6.43;81.46
41712;BME280;27399;51.516;13.670;2023-12-22T02:25:23;97905.59;;;6.21;79.75
41712;BME280;27399;51.516;13.670;2023-12-22T02:27:50;97911.00;;;6.18;79.78
41712;BME280;27399;51.516;13.670;2023-12-22T02:30:19;97909.09;;;6.50;81.35
41712;BME280;27399;51.516;13.670;2023-12-22T02:32:50;97917.78;;;6.27;79.78
41712;BME280;27399;51.516;13.670;2023-12-22T02:35:23;97935.88;;;6.41;81.64
41712;BME280;27399;51.516;13.670;2023-12-22T02:37:48;97925.66;;;6.28;80.59
41712;BME280;27399;51.516;13.670;2023-12-22T02:40:14;97918.94;;;6.18;80.49
41712;BME280;27399;51.516;13.670;2023-12-22T02:42:40;97935.19;;;6.34;81.38
41712;BME280;27399;51.516;13.670;2023-12-22T02:45:06;97925.75;;;6.25;81.98
41712;BME280;27399;51.516;13.670;2023-12-22T02:47:37;97941.22;;;6.39;81.75
41712;BME280;27399;51.516;13.670;2023-12-22T02:50:03;97953.66;;;6.35;82.67
41712;BME280;27399;51.516;13.670;2023-12-22T02:52:28;97949.94;;;6.43;82.48
41712;BME280;27399;51.516;13.670;2023-12-22T02:54:54;97954.06;;;6.51;81.17
41712;BME280;27399;51.516;13.670;2023-12-22T02:57:19;97958.78;;;6.42;81.43
41712;BME280;27399;51.516;13.670;2023-12-22T02:59:45;97957.78;;;6.17;82.02
41712;BME280;27399;51.516;13.670;2023-12-22T03:02:10;97931.69;;;6.03;83.04
41712;BME280;27399;51.516;13.670;2023-12-22T03:04:35;97960.84;;;6.02;84.37
41712;BME280;27399;51.516;13.670;2023-12-22T03:07:01;97966.47;;;6.21;82.65
41712;BME280;27399;51.516;13.670;2023-12-22T03:09:26;97952.19;;;5.65;84.79
41712;BME280;27399;51.516;13.670;2023-12-22T03:11:51;97951.63;;;5.84;85.74
41712;BME280;27399;51.516;13.670;2023-12-22T03:14:19;97945.06;;;5.67;85.51
41712;BME280;27399;51.516;13.670;2023-12-22T03:16:45;97946.19;;;5.90;86.50
41712;BME280;27399;51.516;13.670;2023-12-22T03:19:10;97934.78;;;5.88;87.00
41712;BME280;27399;51.516;13.670;2023-12-22T03:21:35;97933.59;;;5.98;87.49
41712;BME280;27399;51.516;13.670;2023-12-22T03:24:01;97935.47;;;5.95;89.97
41712;BME280;27399;51.516;13.670;2023-12-22T03:26:26;97927.13;;;5.79;88.57
41712;BME280;27399;51.516;13.670;2023-12-22T03:28:52;97935.69;;;5.87;89.52
41712;BME280;27399;51.516;13.670;2023-12-22T03:31:18;97930.19;;;5.95;89.02
41712;BME280;27399;51.516;13.670;2023-12-22T03:33:43;97927.66;;;5.60;89.63
41712;BME280;27399;51.516;13.670;2023-12-22T03:36:08;97933.75;;;5.62;88.60
41712;BME280;27399;51.516;13.670;2023-12-22T03:38:34;97937.59;;;5.50;90.13
41712;BME280;27399;51.516;13.670;2023-12-22T03:40:59;97945.78;;;5.41;89.41
41712;BME280;27399;51.516;13.670;2023-12-22T03:43:24;97950.09;;;5.77;89.49
41712;BME280;27399;51.516;13.670;2023-12-22T03:45:50;97951.81;;;5.46;89.55
41712;BME280;27399;51.516;13.670;2023-12-22T03:48:15;97945.22;;;5.61;89.55
41712;BME280;27399;51.516;13.670;2023-12-22T03:50:41;97955.56;;;5.70;91.15
41712;BME280;27399;51.516;13.670;2023-12-22T03:53:06;97957.53;;;5.62;91.01
41712;BME280;27399;51.516;13.670;2023-12-22T03:55:31;97959.00;;;5.41;90.84
41712;BME280;27399;51.516;13.670;2023-12-22T03:57:57;97973.63;;;5.21;91.82
41712;BME280;27399;51.516;13.670;2023-12-22T04:00:22;97976.16;;;5.26;93.54
41712;BME280;27399;51.516;13.670;2023-12-22T04:02:47;97968.47;;;5.17;93.11
41712;BME280;27399;51.516;13.670;2023-12-22T04:05:12;97967.38;;;5.24;92.66
41712;BME280;27399;51.516;13.670;2023-12-22T04:07:38;97955.56;;;5.04;93.55
41712;BME280;27399;51.516;13.670;2023-12-22T04:10:03;97956.63;;;5.30;91.85
41712;BME280;27399;51.516;13.670;2023-12-22T04:12:29;97952.09;;;5.02;93.13
41712;BME280;27399;51.516;13.670;2023-12-22T04:14:54;97951.84;;;5.11;92.22
41712;BME280;27399;51.516;13.670;2023-12-22T04:17:19;97935.94;;;5.15;91.99
41712;BME280;27399;51.516;13.670;2023-12-22T04:19:45;97940.03;;;4.92;92.40
41712;BME280;27399;51.516;13.670;2023-12-22T04:22:10;97934.97;;;4.83;92.36
41712;BME280;27399;51.516;13.670;2023-12-22T04:24:36;97939.84;;;4.98;92.28
41712;BME280;27399;51.516;13.670;2023-12-22T04:27:01;97938.72;;;5.08;91.99
41712;BME280;27399;51.516;13.670;2023-12-22T04:29:26;97935.88;;;5.16;92.80
41712;BME280;27399;51.516;13.670;2023-12-22T04:31:52;97928.97;;;5.10;91.90
41712;BME280;27399;51.516;13.670;2023-12-22T04:34:17;97922.84;;;4.75;91.24
41712;BME280;27399;51.516;13.670;2023-12-22T04:36:42;97927.09;;;4.81;91.97
41712;BME280;27399;51.516;13.670;2023-12-22T04:39:08;97922.13;;;5.03;91.92
41712;BME280;27399;51.516;13.670;2023-12-22T04:41:33;97914.88;;;5.11;91.08
41712;BME280;27399;51.516;13.670;2023-12-22T04:43:58;97910.34;;;5.15;90.38
41712;BME280;27399;51.516;13.670;2023-12-22T04:46:28;97900.63;;;5.17;90.85
41712;BME280;27399;51.516;13.670;2023-12-22T04:48:53;97916.53;;;5.16;91.92
41712;BME280;27399;51.516;13.670;2023-12-22T04:51:19;97908.09;;;5.34;91.34
41712;BME280;27399;51.516;13.670;2023-12-22T04:53:44;97896.81;;;5.27;90.18
41712;BME280;27399;51.516;13.670;2023-12-22T04:56:09;97909.00;;;5.33;89.93
41712;BME280;27399;51.516;13.670;2023-12-22T04:58:35;97909.16;;;5.58;89.98
41712;BME280;27399;51.516;13.670;2023-12-22T05:01:00;97901.44;;;5.51;89.99
41712;BME280;27399;51.516;13.670;2023-12-22T05:03:25;97894.47;;;5.50;89.24
41712;BME280;27399;51.516;13.670;2023-12-22T05:05:51;97887.97;;;5.28;89.12
41712;BME280;27399;51.516;13.670;2023-12-22T05:08:16;97889.84;;;5.25;89.13
41712;BME280;27399;51.516;13.670;2023-12-22T05:10:41;97893.31;;;5.27;88.95
41712;BME280;27399;51.516;13.670;2023-12-22T05:13:07;97885.59;;;5.51;88.91
41712;BME280;27399;51.516;13.670;2023-12-22T05:15:32;97882.72;;;5.58;89.69
41712;BME280;27399;51.516;13.670;2023-12-22T05:17:58;97903.44;;;5.42;89.30
41712;BME280;27399;51.516;13.670;2023-12-22T05:20:23;97888.88;;;5.27;89.55
41712;BME280;27399;51.516;13.670;2023-12-22T05:22:48;97903.31;;;5.47;90.25
41712;BME280;27399;51.516;13.670;2023-12-22T05:25:14;97898.91;;;5.48;89.04
41712;BME280;27399;51.516;13.670;2023-12-22T05:27:39;97908.66;;;5.46;89.39
41712;BME280;27399;51.516;13.670;2023-12-22T05:30:06;97899.06;;;5.73;90.05
41712;BME280;27399;51.516;13.670;2023-12-22T05:32:32;97897.34;;;5.40;87.82
41712;BME280;27399;51.516;13.670;2023-12-22T05:34:58;97901.81;;;5.38;88.00
41712;BME280;27399;51.516;13.670;2023-12-22T05:37:23;97883.63;;;5.59;87.79
41712;BME280;27399;51.516;13.670;2023-12-22T05:39:48;97886.41;;;5.53;87.77
41712;BME280;27399;51.516;13.670;2023-12-22T05:42:14;97897.41;;;5.70;87.52
41712;BME280;27399;51.516;13.670;2023-12-22T05:44:39;97891.56;;;5.59;88.98
41712;BME280;27399;51.516;13.670;2023-12-22T05:47:04;97898.03;;;5.47;88.77
41712;BME280;27399;51.516;13.670;2023-12-22T05:49:30;97899.63;;;5.54;87.26
41712;BME280;27399;51.516;13.670;2023-12-22T05:51:55;97885.50;;;5.85;86.81
41712;BME280;27399;51.516;13.670;2023-12-22T05:54:21;97896.59;;;5.67;87.08
41712;BME280;27399;51.516;13.670;2023-12-22T05:56:46;97914.66;;;5.51;86.37
41712;BME280;27399;51.516;13.670;2023-12-22T05:59:11;97902.84;;;5.33;84.74
41712;BME280;27399;51.516;13.670;2023-12-22T06:01:37;97908.59;;;5.47;83.13
41712;BME280;27399;51.516;13.670;2023-12-22T06:04:02;97910.66;;;5.37;84.21
41712;BME280;27399;51.516;13.670;2023-12-22T06:06:28;97909.06;;;5.32;83.29
41712;BME280;27399;51.516;13.670;2023-12-22T06:08:54;97908.59;;;5.49;83.59
41712;BME280;27399;51.516;13.670;2023-12-22T06:11:20;97920.50;;;5.64;83.35
41712;BME280;27399;51.516;13.670;2023-12-22T06:13:45;97921.69;;;5.52;82.33
41712;BME280;27399;51.516;13.670;2023-12-22T06:16:14;97913.94;;;5.46;82.62
41712;BME280;27399;51.516;13.670;2023-12-22T06:18:40;97920.09;;;5.46;81.96
41712;BME280;27399;51.516;13.670;2023-12-22T06:21:06;97917.44;;;5.78;82.47
41712;BME280;27399;51.516;13.670;2023-12-22T06:23:31;97910.63;;;5.69;81.76
41712;BME280;27399;51.516;13.670;2023-12-22T06:25:57;97909.94;;;5.62;79.92
41712;BME280;27399;51.516;13.670;2023-12-22T06:28:22;97913.69;;;5.85;81.63
41712;BME280;27399;51.516;13.670;2023-12-22T06:30:47;97916.56;;;5.77;82.76
41712;BME280;27399;51.516;13.670;2023-12-22T06:33:13;97919.19;;;5.79;81.15
41712;BME280;27399;51.516;13.670;2023-12-22T06:35:38;97920.44;;;5.97;80.79
41712;BME280;27399;51.516;13.670;2023-12-22T06:38:06;97924.91;;;5.93;82.67
41712;BME280;27399;51.516;13.670;2023-12-22T06:40:32;97924.00;;;5.64;79.96
41712;BME280;27399;51.516;13.670;2023-12-22T06:42:57;97933.44;;;5.73;79.85
41712;BME280;27399;51.516;13.670;2023-12-22T06:45:22;97923.91;;;5.67;81.83
41712;BME280;27399;51.516;13.670;2023-12-22T06:47:48;97941.66;;;5.62;82.31
41712;BME280;27399;51.516;13.670;2023-12-22T06:50:13;97936.38;;;5.62;83.51
41712;BME280;27399;51.516;13.670;2023-12-22T06:52:38;97947.19;;;5.86;83.11
41712;BME280;27399;51.516;13.670;2023-12-22T06:55:04;97953.66;;;5.44;83.80
41712;BME280;27399;51.516;13.670;2023-12-22T06:57:30;97952.78;;;5.75;84.20
41712;BME280;27399;51.516;13.670;2023-12-22T06:59:55;97958.44;;;5.61;83.70
41712;BME280;27399;51.516;13.670;2023-12-22T07:02:21;97954.88;;;5.64;86.03
41712;BME280;27399;51.516;13.670;2023-12-22T07:05:02;97972.34;;;5.69;87.17
41712;BME280;27399;51.516;13.670;2023-12-22T07:07:28;97983.44;;;5.49;86.11
41712;BME280;27399;51.516;13.670;2023-12-22T07:09:54;97963.78;;;5.28;86.75
41712;BME280;27399;51.516;13.670;2023-12-22T07:12:20;97975.06;;;5.66;86.01
41712;BME280;27399;51.516;13.670;2023-12-22T07:14:45;97982.94;;;5.35;88.40
41712;BME280;27399;51.516;13.670;2023-12-22T07:17:11;97975.41;;;5.54;87.56
41712;BME280;27399;51.516;13.670;2023-12-22T07:19:37;97982.41;;;5.55;88.32
41712;BME280;27399;51.516;13.670;2023-12-22T07:22:02;97977.75;;;5.32;89.07
41712;BME280;27399;51.516;13.670;2023-12-22T07:24:29;97989.28;;;5.29;88.00
41712;BME280;27399;51.516;13.670;2023-12-22T07:26:54;97999.50;;;5.43;88.97
41712;BME280;27399;51.516;13.670;2023-12-22T07:29:20;97990.50;;;5.16;85.92
41712;BME280;27399;51.516;13.670;2023-12-22T07:31:45;97972.28;;;5.39;88.20
41712;BME280;27399;51.516;13.670;2023-12-22T07:34:10;97987.19;;;5.40;85.25
41712;BME280;27399;51.516;13.670;2023-12-22T07:36:36;97992.97;;;5.22;84.32
41712;BME280;27399;51.516;13.670;2023-12-22T07:39:01;98008.44;;;5.37;84.46
41712;BME280;27399;51.516;13.670;2023-12-22T07:41:26;98001.94;;;5.16;84.42
41712;BME280;27399;51.516;13.670;2023-12-22T07:43:52;97984.59;;;5.39;83.42
41712;BME280;27399;51.516;13.670;2023-12-22T07:46:20;98007.25;;;5.49;80.49
41712;BME280;27399;51.516;13.670;2023-12-22T07:48:45;98006.41;;;5.47;80.53
41712;BME280;27399;51.516;13.670;2023-12-22T07:51:11;98012.25;;;5.60;81.05
41712;BME280;27399;51.516;13.670;2023-12-22T07:53:37;98022.97;;;5.55;80.70
41712;BME280;27399;51.516;13.670;2023-12-22T07:56:03;98013.41;;;5.50;79.65
41712;BME280;27399;51.516;13.670;2023-12-22T07:58:31;98019.72;;;5.77;79.12
41712;BME280;27399;51.516;13.670;2023-12-22T08:00:57;98040.22;;;5.69;79.74
41712;BME280;27399;51.516;13.670;2023-12-22T08:03:22;98042.84;;;5.70;78.98
41712;BME280;27399;51.516;13.670;2023-12-22T08:05:48;98031.16;;;5.78;79.72
41712;BME280;27399;51.516;13.670;2023-12-22T08:08:13;98036.47;;;5.78;79.79
41712;BME280;27399;51.516;13.670;2023-12-22T08:10:38;98022.97;;;5.54;78.58
41712;BME280;27399;51.516;13.670;2023-12-22T08:13:04;98035.94;;;5.63;79.77
41712;BME280;27399;51.516;13.670;2023-12-22T08:15:29;98039.19;;;5.74;80.55
41712;BME280;27399;51.516;13.670;2023-12-22T08:17:57;98042.06;;;5.65;79.20
41712;BME280;27399;51.516;13.670;2023-12-22T08:20:22;98055.94;;;5.73;80.50
41712;BME280;27399;51.516;13.670;2023-12-22T08:22:48;98053.47;;;5.67;81.05
41712;BME280;27399;51.516;13.670;2023-12-22T08:25:14;98068.03;;;5.49;78.92
41712;BME280;27399;51.516;13.670;2023-12-22T08:27:39;98078.69;;;5.81;79.87
41712;BME280;27399;51.516;13.670;2023-12-22T08:30:05;98113.03;;;5.48;79.80
41712;BME280;27399;51.516;13.670;2023-12-22T08:32:31;98080.28;;;5.53;81.16
41712;BME280;27399;51.516;13.670;2023-12-22T08:34:56;98100.25;;;5.65;80.28
41712;BME280;27399;51.516;13.670;2023-12-22T08:37:22;98118.31;;;5.48;80.55
41712;BME280;27399;51.516;13.670;2023-12-22T08:39:47;98107.88;;;5.41;81.89
41712;BME280;27399;51.516;13.670;2023-12-22T08:42:12;98113.88;;;5.50;81.05
41712;BME280;27399;51.516;13.670;2023-12-22T08:44:38;98131.56;;;5.46;80.06
41712;BME280;27399;51.516;13.670;2023-12-22T08:47:03;98127.09;;;5.50;81.42
41712;BME280;27399;51.516;13.670;2023-12-22T08:49:28;98120.19;;;5.42;82.45
41712;BME280;27399;51.516;13.670;2023-12-22T08:51:54;98133.88;;;5.60;82.56
41712;BME280;27399;51.516;13.670;2023-12-22T08:54:19;98134.03;;;5.88;82.93
41712;BME280;27399;51.516;13.670;2023-12-22T08:56:44;98143.69;;;5.55;83.08
41712;BME280;27399;51.516;13.670;2023-12-22T08:59:10;98139.06;;;5.63;82.93
41712;BME280;27399;51.516;13.670;2023-12-22T09:01:35;98138.69;;;5.79;82.24
41712;BME280;27399;51.516;13.670;2023-12-22T09:04:00;98144.97;;;6.11;82.78
41712;BME280;27399;51.516;13.670;2023-12-22T09:06:26;98142.38;;;6.41;82.22
41712;BME280;27399;51.516;13.670;2023-12-22T09:08:52;98132.81;;;6.35;81.27
41712;BME280;27399;51.516;13.670;2023-12-22T09:11:19;98140.03;;;6.61;79.15
41712;BME280;27399;51.516;13.670;2023-12-22T09:13:44;98137.00;;;6.44;79.12
41712;BME280;27399;51.516;13.670;2023-12-22T09:16:10;98151.44;;;6.32;80.66
41712;BME280;27399;51.516;13.670;2023-12-22T09:18:35;98160.25;;;5.98;79.20
41712;BME280;27399;51.516;13.670;2023-12-22T09:21:01;98151.56;;;5.93;80.48
41712;BME280;27399;51.516;13.670;2023-12-22T09:23:27;98153.34;;;5.92;82.15
41712;BME280;27399;51.516;13.670;2023-12-22T09:25:53;98163.84;;;5.95;80.50
41712;BME280;27399;51.516;13.670;2023-12-22T09:28:18;98157.09;;;6.18;80.48
41712;BME280;27399;51.516;13.670;2023-12-22T09:30:44;98168.41;;;6.25;82.72
41712;BME280;27399;51.516;13.670;2023-12-22T09:33:09;98151.34;;;6.02;81.51
41712;BME280;27399;51.516;13.670;2023-12-22T09:35:35;98182.16;;;6.04;81.79
41712;BME280;27399;51.516;13.670;2023-12-22T09:38:01;98179.38;;;6.09;80.50
41712;BME280;27399;51.516;13.670;2023-12-22T09:40:26;98184.22;;;5.92;80.54
41712;BME280;27399;51.516;13.670;2023-12-22T09:42:53;98184.06;;;5.98;79.09
41712;BME280;27399;51.516;13.670;2023-12-22T09:45:19;98188.47;;;5.97;77.99
41712;BME280;27399;51.516;13.670;2023-12-22T09:47:46;98192.84;;;6.01;79.47
41712;BME280;27399;51.516;13.670;2023-12-22T09:50:12;98193.50;;;6.43;77.91
41712;BME280;27399;51.516;13.670;2023-12-22T09:52:38;98199.78;;;6.39;77.87
41712;BME280;27399;51.516;13.670;2023-12-22T09:55:05;98186.28;;;6.16;76.17
41712;BME280;27399;51.516;13.670;2023-12-22T09:57:32;98208.72;;;6.34;77.49
41712;BME280;27399;51.516;13.670;2023-12-22T09:59:58;98201.59;;;6.70;77.11
41712;BME280;27399;51.516;13.670;2023-12-22T10:02:25;98204.66;;;7.16;74.63
41712;BME280;27399;51.516;13.670;2023-12-22T10:04:51;98209.66;;;6.96;74.41
41712;BME280;27399;51.516;13.670;2023-12-22T10:07:17;98207.00;;;7.26;74.76
41712;BME280;27399;51.516;13.670;2023-12-22T10:09:42;98213.03;;;7.02;76.18
41712;BME280;27399;51.516;13.670;2023-12-22T10:12:09;98203.88;;;7.42;76.26
41712;BME280;27399;51.516;13.670;2023-12-22T10:14:36;98212.03;;;7.36;76.70
41712;BME280;27399;51.516;13.670;2023-12-22T10:17:03;98212.31;;;9.34;71.27
41712;BME280;27399;51.516;13.670;2023-12-22T10:19:29;98207.59;;;11.85;65.17
41712;BME280;27399;51.516;13.670;2023-12-22T10:21:54;98208.28;;;13.12;62.25
41712;BME280;27399;51.516;13.670;2023-12-22T10:27:12;98198.09;;;13.68;58.23
41712;BME280;27399;51.516;13.670;2023-12-22T10:29:37;98222.25;;;11.96;62.03
41712;BME280;27399;51.516;13.670;2023-12-22T10:32:03;98217.09;;;9.70;64.58
41712;BME280;27399;51.516;13.670;2023-12-22T10:34:30;98214.81;;;10.68;66.58
41712;BME280;27399;51.516;13.670;2023-12-22T10:36:55;98211.41;;;9.57;66.22
41712;BME280;27399;51.516;13.670;2023-12-22T10:39:21;98215.81;;;9.58;68.67
41712;BME280;27399;51.516;13.670;2023-12-22T10:41:47;98206.25;;;10.60;66.02
41712;BME280;27399;51.516;13.670;2023-12-22T10:44:14;98210.84;;;9.71;66.46
41712;BME280;27399;51.516;13.670;2023-12-22T10:46:39;98207.94;;;9.33;68.25
41712;BME280;27399;51.516;13.670;2023-12-22T10:49:07;98221.50;;;9.49;69.29
41712;BME280;27399;51.516;13.670;2023-12-22T10:51:33;98209.47;;;8.67;70.48
41712;BME280;27399;51.516;13.670;2023-12-22T10:53:58;98221.50;;;7.43;70.59
41712;BME280;27399;51.516;13.670;2023-12-22T10:56:27;98199.22;;;7.50;74.54
41712;BME280;27399;51.516;13.670;2023-12-22T10:58:53;98220.00;;;7.04;73.03
41712;BME280;27399;51.516;13.670;2023-12-22T11:01:18;98223.19;;;6.87;74.71
41712;BME280;27399;51.516;13.670;2023-12-22T11:03:45;98225.59;;;6.63;76.92
41712;BME280;27399;51.516;13.670;2023-12-22T11:06:13;98219.66;;;6.22;75.99
41712;BME280;27399;51.516;13.670;2023-12-22T11:08:41;98238.47;;;6.10;76.82
41712;BME280;27399;51.516;13.670;2023-12-22T11:11:20;98221.13;;;5.60;78.82
41712;BME280;27399;51.516;13.670;2023-12-22T11:13:46;98219.75;;;5.81;79.32
41712;BME280;27399;51.516;13.670;2023-12-22T11:16:12;98222.22;;;5.87;79.27
41712;BME280;27399;51.516;13.670;2023-12-22T11:18:39;98242.53;;;5.49;81.64
41712;BME280;27399;51.516;13.670;2023-12-22T11:21:06;98243.84;;;5.69;81.29
41712;BME280;27399;51.516;13.670;2023-12-22T11:23:32;98236.28;;;5.52;81.87
41712;BME280;27399;51.516;13.670;2023-12-22T11:25:59;98245.63;;;5.68;82.93
41712;BME280;27399;51.516;13.670;2023-12-22T11:28:26;98235.22;;;6.34;81.30
41712;BME280;27399;51.516;13.670;2023-12-22T11:30:51;98235.97;;;8.16;76.30
41712;BME280;27399;51.516;13.670;2023-12-22T11:33:17;98235.22;;;10.89;67.81
41712;BME280;27399;51.516;13.670;2023-12-22T11:35:43;98241.63;;;10.00;70.77
41712;BME280;27399;51.516;13.670;2023-12-22T11:38:09;98254.16;;;9.74;71.06
41712;BME280;27399;51.516;13.670;2023-12-22T11:40:35;98239.84;;;8.60;73.00
41712;BME280;27399;51.516;13.670;2023-12-22T11:43:00;98241.19;;;8.19;73.81
41712;BME280;27399;51.516;13.670;2023-12-22T11:45:26;98235.88;;;7.93;74.99
41712;BME280;27399;51.516;13.670;2023-12-22T11:47:55;98238.91;;;7.23;76.95
41712;BME280;27399;51.516;13.670;2023-12-22T11:50:29;98229.19;;;7.24;78.60
41712;BME280;27399;51.516;13.670;2023-12-22T11:52:55;98231.34;;;7.09;79.17
41712;BME280;27399;51.516;13.670;2023-12-22T12:01:12;98219.53;;;6.58;81.57
41712;BME280;27399;51.516;13.670;2023-12-22T12:03:42;98213.22;;;6.64;82.11
41712;BME280;27399;51.516;13.670;2023-12-22T12:08:41;98184.31;;;7.73;79.07
41712;BME280;27399;51.516;13.670;2023-12-22T12:11:07;98184.41;;;8.24;76.15
41712;BME280;27399;51.516;13.670;2023-12-22T12:13:33;98188.75;;;8.26;76.71
41712;BME280;27399;51.516;13.670;2023-12-22T12:16:01;98190.16;;;8.10;76.54
41712;BME280;27399;51.516;13.670;2023-12-22T12:18:28;98200.28;;;7.44;78.16
41712;BME280;27399;51.516;13.670;2023-12-22T12:20:54;98203.25;;;7.34;79.52
41712;BME280;27399;51.516;13.670;2023-12-22T12:23:19;98202.13;;;7.12;79.45
41712;BME280;27399;51.516;13.670;2023-12-22T12:25:45;98191.53;;;6.81;81.90
41712;BME280;27399;51.516;13.670;2023-12-22T12:28:12;98189.16;;;6.72;81.15
41712;BME280;27399;51.516;13.670;2023-12-22T12:30:39;98197.78;;;6.47;81.98
41712;BME280;27399;51.516;13.670;2023-12-22T12:33:08;98187.50;;;6.67;81.53
41712;BME280;27399;51.516;13.670;2023-12-22T12:35:34;98187.25;;;6.45;81.91
41712;BME280;27399;51.516;13.670;2023-12-22T12:37:59;98153.72;;;6.13;83.08
41712;BME280;27399;51.516;13.670;2023-12-22T12:40:25;98149.41;;;6.09;83.56
41712;BME280;27399;51.516;13.670;2023-12-22T12:42:54;98157.75;;;6.28;83.16
41712;BME280;27399;51.516;13.670;2023-12-22T12:45:22;98167.69;;;6.51;83.39
41712;BME280;27399;51.516;13.670;2023-12-22T12:48:00;98159.28;;;6.35;83.74
41712;BME280;27399;51.516;13.670;2023-12-22T12:50:26;98173.31;;;6.05;83.95
41712;BME280;27399;51.516;13.670;2023-12-22T12:52:55;98139.94;;;5.98;82.93
41712;BME280;27399;51.516;13.670;2023-12-22T12:55:21;98159.81;;;6.16;83.93
41712;BME280;27399;51.516;13.670;2023-12-22T12:57:54;98154.88;;;6.67;81.67
41712;BME280;27399;51.516;13.670;2023-12-22T13:00:37;98142.28;;;6.44;80.56
41712;BME280;27399;51.516;13.670;2023-12-22T13:03:06;98131.97;;;6.34;78.75
41712;BME280;27399;51.516;13.670;2023-12-22T13:05:32;98116.53;;;6.49;77.31